createdAt,value
2018-05-27T00:02:06.782Z,14.36
2018-05-27T00:04:39.264Z,14.33
2018-05-27T00:07:11.659Z,14.29
2018-05-27T00:09:44.099Z,14.29
2018-05-27T00:12:16.427Z,14.26
2018-05-27T00:14:48.895Z,14.23
2018-05-27T00:17:21.438Z,14.21
2018-05-27T00:19:53.909Z,14.19
2018-05-27T00:22:26.246Z,14.21
2018-05-27T00:24:58.788Z,13.86
2018-05-27T00:27:31.260Z,13.74
2018-05-27T00:30:03.702Z,13.71
2018-05-27T00:32:36.554Z,13.74
2018-05-27T00:35:08.969Z,13.63
2018-05-27T00:37:41.428Z,13.60
2018-05-27T00:40:13.748Z,13.56
2018-05-27T00:42:46.224Z,13.49
2018-05-27T00:45:18.581Z,13.57
2018-05-27T00:47:51.400Z,13.46
2018-05-27T00:50:23.726Z,13.14
2018-05-27T00:52:56.061Z,13.18
2018-05-27T00:55:28.513Z,13.13
2018-05-27T00:58:00.892Z,13.28
2018-05-27T01:00:33.368Z,13.18
2018-05-27T01:03:06.265Z,13.05
2018-05-27T01:05:38.691Z,13.00
2018-05-27T01:08:11.076Z,13.06
2018-05-27T01:10:43.576Z,12.86
2018-05-27T01:13:16.048Z,12.94
2018-05-27T01:15:48.300Z,13.10
2018-05-27T01:18:21.140Z,13.05
2018-05-27T01:20:53.563Z,13.18
2018-05-27T01:23:25.834Z,13.12
2018-05-27T01:25:58.330Z,13.14
2018-05-27T01:28:30.805Z,13.04
2018-05-27T01:31:03.204Z,12.85
2018-05-27T01:33:35.585Z,12.63
2018-05-27T01:36:08.075Z,12.38
2018-05-27T01:38:40.830Z,12.46
2018-05-27T01:41:13.167Z,12.26
2018-05-27T01:43:45.460Z,12.00
2018-05-27T01:46:17.728Z,11.90
2018-05-27T01:48:50.271Z,11.76
2018-05-27T01:51:22.721Z,11.66
2018-05-27T01:53:55.210Z,11.73
2018-05-27T01:56:27.482Z,11.77
2018-05-27T01:59:00.011Z,12.00
2018-05-27T02:01:32.321Z,12.20
2018-05-27T02:04:04.996Z,12.18
2018-05-27T02:06:37.368Z,12.13
2018-05-27T02:09:10.131Z,12.06
2018-05-27T02:11:42.567Z,12.11
2018-05-27T02:14:15.060Z,11.90
2018-05-27T02:16:47.500Z,11.66
2018-05-27T02:19:19.954Z,11.52
2018-05-27T02:21:52.332Z,11.52
2018-05-27T02:24:24.670Z,11.69
2018-05-27T02:26:57.177Z,11.86
2018-05-27T02:29:29.719Z,11.77
2018-05-27T02:32:02.053Z,11.66
2018-05-27T02:34:34.437Z,11.75
2018-05-27T02:37:06.852Z,11.97
2018-05-27T02:39:39.349Z,11.99
2018-05-27T02:42:11.574Z,11.95
2018-05-27T02:44:43.950Z,11.98
2018-05-27T02:47:16.220Z,11.95
2018-05-27T02:49:48.631Z,11.86
2018-05-27T02:52:21.063Z,11.20
2018-05-27T02:54:53.584Z,11.26
2018-05-27T02:57:26.057Z,11.24
2018-05-27T02:59:58.528Z,11.28
2018-05-27T03:02:30.911Z,11.45
2018-05-27T03:05:10.637Z,11.19
2018-05-27T03:07:46.117Z,11.31
2018-05-27T03:10:18.624Z,11.30
2018-05-27T03:12:51.013Z,11.34
2018-05-27T03:15:23.482Z,11.46
2018-05-27T03:17:56.008Z,11.59
2018-05-27T03:20:28.879Z,11.51
2018-05-27T03:23:01.387Z,11.29
2018-05-27T03:25:33.779Z,11.43
2018-05-27T03:28:06.140Z,11.53
2018-05-27T03:30:38.631Z,11.70
2018-05-27T03:33:10.965Z,11.80
2018-05-27T03:35:43.517Z,12.02
2018-05-27T03:38:15.858Z,12.13
2018-05-27T03:40:48.358Z,12.39
2018-05-27T03:43:20.651Z,12.48
2018-05-27T03:45:53.228Z,12.24
2018-05-27T03:48:25.678Z,12.23
2018-05-27T03:50:58.055Z,12.31
2018-05-27T03:53:30.576Z,12.53
2018-05-27T03:56:02.972Z,12.76
2018-05-27T03:58:35.498Z,13.04
2018-05-27T04:01:07.972Z,13.14
2018-05-27T04:03:40.432Z,13.32
2018-05-27T04:06:25.328Z,13.43
2018-05-27T04:08:57.824Z,13.48
2018-05-27T04:11:30.150Z,13.40
2018-05-27T04:14:02.405Z,13.41
2018-05-27T04:16:34.873Z,13.84
2018-05-27T04:19:07.347Z,13.69
2018-05-27T04:21:43.074Z,13.46
2018-05-27T04:24:15.408Z,13.49
2018-05-27T04:26:47.952Z,13.79
2018-05-27T04:29:20.453Z,14.21
2018-05-27T04:31:52.801Z,13.94
2018-05-27T04:34:25.308Z,14.29
2018-05-27T04:36:57.862Z,13.80
2018-05-27T04:39:30.400Z,13.94
2018-05-27T04:42:02.845Z,14.17
2018-05-27T04:44:35.172Z,14.21
2018-05-27T04:47:07.646Z,14.44
2018-05-27T04:49:39.986Z,14.19
2018-05-27T04:52:12.343Z,14.14
2018-05-27T04:54:44.717Z,14.60
2018-05-27T04:57:17.057Z,14.76
2018-05-27T04:59:49.520Z,14.74
2018-05-27T05:02:21.893Z,15.13
2018-05-27T05:04:54.180Z,15.45
2018-05-27T05:07:26.901Z,15.50
2018-05-27T05:09:59.232Z,15.43
2018-05-27T05:12:31.684Z,15.29
2018-05-27T05:15:04.010Z,15.58
2018-05-27T05:17:36.490Z,15.55
2018-05-27T05:20:09.036Z,15.99
2018-05-27T05:22:41.493Z,16.30
2018-05-27T05:25:13.808Z,16.71
2018-05-27T05:27:46.410Z,16.50
2018-05-27T05:30:18.904Z,16.69
2018-05-27T05:32:51.406Z,17.19
2018-05-27T05:35:23.882Z,16.94
2018-05-27T05:37:56.344Z,17.15
2018-05-27T05:40:28.719Z,17.13
2018-05-27T05:43:01.240Z,17.22
2018-05-27T05:45:33.663Z,16.60
2018-05-27T05:48:05.984Z,16.56
2018-05-27T05:50:38.423Z,16.80
2018-05-27T05:53:10.925Z,17.30
2018-05-27T05:55:43.307Z,17.71
2018-05-27T05:58:15.688Z,18.08
2018-05-27T06:00:48.120Z,18.11
2018-05-27T06:03:20.695Z,18.51
2018-05-27T06:05:52.982Z,18.35
2018-05-27T06:08:25.594Z,17.98
2018-05-27T06:10:58.042Z,18.21
2018-05-27T06:13:30.478Z,18.84
2018-05-27T06:16:02.903Z,18.32
2018-05-27T06:18:36.024Z,18.85
2018-05-27T06:21:08.577Z,19.16
2018-05-27T06:23:40.991Z,19.50
2018-05-27T06:26:13.432Z,19.28
2018-05-27T06:28:46.160Z,18.92
2018-05-27T06:31:18.497Z,18.58
2018-05-27T06:33:50.907Z,19.24
2018-05-27T06:36:23.504Z,19.43
2018-05-27T06:38:56.091Z,19.41
2018-05-27T06:41:28.427Z,19.51
2018-05-27T06:44:00.927Z,19.77
2018-05-27T06:46:33.412Z,19.72
2018-05-27T06:49:05.899Z,19.94
2018-05-27T06:51:38.411Z,20.18
2018-05-27T06:54:10.938Z,20.88
2018-05-27T06:56:43.420Z,21.06
2018-05-27T06:59:15.936Z,21.76
2018-05-27T07:01:48.460Z,21.83
2018-05-27T07:04:20.959Z,22.00
2018-05-27T07:06:53.451Z,22.21
2018-05-27T07:09:25.901Z,22.45
2018-05-27T07:11:58.255Z,21.68
2018-05-27T07:14:30.540Z,21.53
2018-05-27T07:17:03.101Z,21.72
2018-05-27T07:19:35.636Z,21.63
2018-05-27T07:22:08.922Z,21.85
2018-05-27T07:24:41.630Z,22.15
2018-05-27T07:27:13.958Z,22.44
2018-05-27T07:29:46.517Z,22.14
2018-05-27T07:32:24.576Z,21.51
2018-05-27T07:34:57.102Z,20.93
2018-05-27T07:37:29.619Z,20.76
2018-05-27T07:40:02.122Z,20.24
2018-05-27T07:42:34.591Z,20.23
2018-05-27T07:45:07.080Z,20.24
2018-05-27T07:47:39.567Z,20.64
2018-05-27T07:50:11.937Z,21.50
2018-05-27T07:52:44.350Z,21.65
2018-05-27T07:55:16.927Z,22.22
2018-05-27T07:57:49.399Z,22.50
2018-05-27T08:00:21.819Z,23.07
2018-05-27T08:02:54.311Z,23.90
2018-05-27T08:05:27.422Z,23.78
2018-05-27T08:07:59.808Z,23.41
2018-05-27T08:10:32.471Z,23.20
2018-05-27T08:13:04.861Z,22.98
2018-05-27T08:15:37.308Z,22.83
2018-05-27T08:18:09.620Z,22.35
2018-05-27T08:20:41.989Z,22.55
2018-05-27T08:23:14.416Z,22.82
2018-05-27T08:25:46.969Z,22.73
2018-05-27T08:28:19.350Z,22.87
2018-05-27T08:30:51.891Z,22.75
2018-05-27T08:33:24.371Z,23.09
2018-05-27T08:35:56.665Z,24.04
2018-05-27T08:38:29.005Z,24.68
2018-05-27T08:41:01.473Z,25.21
2018-05-27T08:43:33.910Z,25.49
2018-05-27T08:46:06.283Z,25.77
2018-05-27T08:48:38.806Z,25.76
2018-05-27T08:51:11.168Z,26.04
2018-05-27T08:53:43.663Z,26.64
2018-05-27T08:56:16.240Z,26.55
2018-05-27T08:58:48.628Z,25.38
2018-05-27T09:01:21.322Z,25.00
2018-05-27T09:03:53.685Z,24.70
2018-05-27T09:06:26.254Z,24.39
2018-05-27T09:08:58.990Z,24.16
2018-05-27T09:11:31.552Z,23.51
2018-05-27T09:14:04.272Z,23.45
2018-05-27T09:16:36.797Z,22.68
2018-05-27T09:19:09.276Z,22.44
2018-05-27T09:21:41.655Z,22.78
2018-05-27T09:24:14.094Z,23.02
2018-05-27T09:26:46.663Z,24.06
2018-05-27T09:29:19.010Z,24.99
2018-05-27T09:31:51.464Z,25.80
2018-05-27T09:34:23.867Z,26.28
2018-05-27T09:36:56.187Z,26.37
2018-05-27T09:39:28.495Z,25.60
2018-05-27T09:42:01.221Z,25.05
2018-05-27T09:44:33.543Z,25.11
2018-05-27T09:47:05.960Z,25.34
2018-05-27T09:49:38.252Z,25.01
2018-05-27T09:52:10.668Z,24.89
2018-05-27T09:54:43.143Z,24.94
2018-05-27T09:57:15.681Z,25.75
2018-05-27T09:59:48.127Z,26.61
2018-05-27T10:02:20.428Z,26.69
2018-05-27T10:04:52.821Z,27.18
2018-05-27T10:07:25.307Z,27.82
2018-05-27T10:09:57.730Z,26.63
2018-05-27T10:12:30.204Z,26.68
2018-05-27T10:15:02.704Z,26.88
2018-05-27T10:17:35.174Z,26.76
2018-05-27T10:20:07.588Z,26.86
2018-05-27T10:22:40.060Z,26.64
2018-05-27T10:25:12.476Z,26.56
2018-05-27T10:27:44.912Z,25.54
2018-05-27T10:30:17.378Z,25.79
2018-05-27T10:32:49.877Z,26.09
2018-05-27T10:35:22.289Z,26.45
2018-05-27T10:37:54.879Z,25.42
2018-05-27T10:40:27.368Z,24.64
2018-05-27T10:42:59.936Z,25.35
2018-05-27T10:45:32.309Z,26.18
2018-05-27T10:48:08.364Z,26.90
2018-05-27T10:50:40.827Z,27.51
2018-05-27T10:53:13.172Z,26.52
2018-05-27T10:55:45.631Z,26.14
2018-05-27T10:58:18.141Z,25.56
2018-05-27T11:00:50.585Z,26.42
2018-05-27T11:03:23.090Z,27.52
2018-05-27T11:05:55.426Z,27.32
2018-05-27T11:08:27.922Z,27.11
2018-05-27T11:11:00.331Z,27.36
2018-05-27T11:13:33.016Z,27.84
2018-05-27T11:16:05.313Z,27.53
2018-05-27T11:18:37.617Z,27.11
2018-05-27T11:21:09.899Z,26.21
2018-05-27T11:23:42.375Z,25.25
2018-05-27T11:26:14.863Z,25.00
2018-05-27T11:28:47.443Z,24.62
2018-05-27T11:31:19.922Z,24.60
2018-05-27T11:33:52.414Z,24.16
2018-05-27T11:36:24.781Z,24.08
2018-05-27T11:38:57.152Z,24.34
2018-05-27T11:41:29.680Z,24.91
2018-05-27T11:44:02.054Z,24.68
2018-05-27T11:46:34.467Z,25.17
2018-05-27T11:49:06.988Z,26.22
2018-05-27T11:51:39.472Z,26.21
2018-05-27T11:54:11.892Z,26.13
2018-05-27T11:56:44.347Z,26.34
2018-05-27T11:59:16.771Z,26.07
2018-05-27T12:01:49.293Z,26.32
2018-05-27T12:04:21.750Z,26.88
2018-05-27T12:06:54.163Z,26.60
2018-05-27T12:09:26.909Z,26.62
2018-05-27T12:11:59.179Z,27.65
2018-05-27T12:14:31.727Z,27.38
2018-05-27T12:17:03.995Z,27.01
2018-05-27T12:19:36.315Z,26.62
2018-05-27T12:22:08.578Z,26.76
2018-05-27T12:24:41.076Z,26.86
2018-05-27T12:30:07.233Z,25.89
2018-05-27T12:32:39.536Z,27.19
2018-05-27T12:35:11.860Z,27.17
2018-05-27T12:37:44.322Z,27.21
2018-05-27T12:40:16.690Z,27.41
2018-05-27T12:42:48.990Z,27.22
2018-05-27T12:45:21.333Z,27.27
2018-05-27T12:47:53.802Z,27.90
2018-05-27T12:50:26.628Z,28.15
2018-05-27T12:52:59.056Z,26.76
2018-05-27T12:55:31.397Z,26.05
2018-05-27T12:58:03.656Z,24.83
2018-05-27T13:00:36.286Z,24.58
2018-05-27T13:03:08.642Z,24.86
2018-05-27T13:05:41.011Z,24.38
2018-05-27T13:08:13.418Z,24.26
2018-05-27T13:10:45.788Z,24.44
2018-05-27T13:13:18.300Z,24.32
2018-05-27T13:15:51.082Z,24.93
2018-05-27T13:18:23.368Z,24.80
2018-05-27T13:20:55.715Z,24.89
2018-05-27T13:23:27.974Z,24.81
2018-05-27T13:26:00.497Z,24.89
2018-05-27T13:28:33.011Z,24.31
2018-05-27T13:31:05.676Z,24.44
2018-05-27T13:33:38.296Z,24.47
2018-05-27T13:36:10.735Z,24.73
2018-05-27T13:38:43.019Z,24.71
2018-05-27T13:41:15.522Z,25.49
2018-05-27T13:43:47.799Z,25.69
2018-05-27T13:46:20.296Z,25.73
2018-05-27T13:48:52.681Z,25.70
2018-05-27T13:51:25.101Z,25.56
2018-05-27T13:53:57.464Z,25.23
2018-05-27T13:56:29.835Z,25.19
2018-05-27T13:59:02.267Z,25.09
2018-05-27T14:01:34.806Z,25.05
2018-05-27T14:04:07.255Z,25.14
2018-05-27T14:06:39.781Z,26.56
2018-05-27T14:09:12.090Z,27.45
2018-05-27T14:11:44.451Z,27.58
2018-05-27T14:14:16.730Z,27.69
2018-05-27T14:16:49.256Z,28.01
2018-05-27T14:19:21.785Z,27.30
2018-05-27T14:21:54.165Z,26.76
2018-05-27T14:24:26.531Z,26.14
2018-05-27T14:26:59.053Z,25.59
2018-05-27T14:29:31.511Z,24.94
2018-05-27T14:32:03.911Z,25.11
2018-05-27T14:34:36.289Z,24.89
2018-05-27T14:37:08.648Z,24.46
2018-05-27T14:39:41.212Z,24.48
2018-05-27T14:42:13.523Z,24.29
2018-05-27T14:44:46.016Z,24.44
2018-05-27T15:02:08.351Z,24.16
2018-05-27T15:04:40.655Z,23.86
2018-05-27T15:07:13.010Z,23.64
2018-05-27T15:09:45.290Z,23.91
2018-05-27T15:12:17.757Z,23.92
2018-05-27T15:14:50.061Z,24.10
2018-05-27T15:17:22.504Z,24.38
2018-05-27T15:19:54.973Z,24.64
2018-05-27T15:22:27.227Z,26.34
2018-05-27T15:24:59.626Z,28.74
2018-05-27T15:27:32.126Z,30.44
2018-05-27T15:30:04.388Z,30.95
2018-05-27T15:32:36.963Z,28.25
2018-05-27T15:35:09.390Z,27.73
2018-05-27T15:37:41.939Z,26.56
2018-05-27T15:40:14.306Z,25.86
2018-05-27T15:42:46.637Z,25.40
2018-05-27T15:45:19.107Z,25.24
2018-05-27T15:47:51.829Z,24.73
2018-05-27T15:50:24.318Z,24.61
2018-05-27T15:52:56.770Z,24.48
2018-05-27T15:55:30.581Z,24.56
2018-05-27T15:58:03.415Z,24.55
2018-05-27T16:00:37.204Z,24.40
2018-05-27T16:03:09.702Z,24.53
2018-05-27T16:05:42.187Z,24.35
2018-05-27T16:08:14.578Z,24.23
2018-05-27T16:10:46.887Z,24.12
2018-05-27T16:13:19.176Z,23.97
2018-05-27T16:15:51.657Z,24.10
2018-05-27T16:18:24.334Z,23.86
2018-05-27T16:20:57.474Z,23.74
2018-05-27T16:23:28.951Z,23.89
2018-05-27T16:26:01.464Z,23.73
2018-05-27T16:28:27.828Z,23.78
2018-05-27T16:30:54.159Z,23.69
2018-05-27T16:33:20.449Z,23.48
2018-05-27T16:35:46.789Z,23.37
2018-05-27T16:38:14.912Z,22.93
2018-05-27T16:40:43.401Z,22.93
2018-05-27T16:43:09.907Z,22.82
2018-05-27T16:45:36.931Z,22.66
2018-05-27T16:48:03.651Z,22.67
2018-05-27T16:50:29.993Z,22.53
2018-05-27T16:53:00.632Z,22.50
2018-05-27T16:55:28.117Z,22.48
2018-05-27T16:57:57.788Z,22.42
2018-05-27T17:00:24.510Z,22.34
2018-05-27T17:02:51.694Z,22.30
2018-05-27T17:05:18.211Z,22.19
2018-05-27T17:07:45.820Z,22.07
2018-05-27T17:10:13.428Z,21.94
2018-05-27T17:12:39.716Z,21.88
2018-05-27T17:15:06.074Z,21.74
2018-05-27T17:17:33.095Z,21.57
2018-05-27T17:20:01.047Z,21.57
2018-05-27T17:22:29.303Z,21.49
2018-05-27T17:24:55.711Z,21.48
2018-05-27T17:27:22.901Z,21.39
2018-05-27T17:29:49.583Z,21.46
2018-05-27T17:32:15.928Z,21.34
2018-05-27T17:34:42.397Z,21.20
2018-05-27T17:37:08.744Z,21.11
2018-05-27T17:39:35.047Z,21.14
2018-05-27T17:42:01.358Z,20.92
2018-05-27T17:44:28.756Z,20.64
2018-05-27T17:46:56.451Z,20.58
2018-05-27T17:49:23.484Z,20.37
2018-05-27T17:51:56.941Z,20.26
2018-05-27T17:54:23.484Z,20.20
2018-05-27T17:56:49.752Z,20.21
2018-05-27T17:59:20.167Z,20.21
2018-05-27T18:01:46.624Z,20.11
2018-05-27T18:04:13.144Z,19.94
2018-05-27T18:06:39.642Z,19.97
2018-05-27T18:09:05.989Z,19.92
2018-05-27T18:11:32.435Z,19.78
2018-05-27T18:14:03.994Z,19.71
2018-05-27T18:16:30.272Z,19.54
2018-05-27T18:18:56.579Z,19.20
2018-05-27T18:21:22.991Z,19.49
2018-05-27T18:23:49.361Z,19.04
2018-05-27T18:26:15.670Z,19.01
2018-05-27T18:28:42.068Z,19.05
2018-05-27T18:31:08.410Z,19.11
2018-05-27T18:33:34.709Z,19.34
2018-05-27T18:36:01.060Z,19.28
2018-05-27T18:38:27.355Z,19.37
2018-05-27T18:40:53.664Z,19.24
2018-05-27T18:43:20.532Z,19.11
2018-05-27T18:45:47.393Z,18.88
2018-05-27T18:48:13.884Z,18.92
2018-05-27T18:50:41.295Z,18.80
2018-05-27T18:53:08.533Z,18.34
2018-05-27T18:55:35.846Z,18.30
2018-05-27T18:58:02.189Z,18.18
2018-05-27T19:00:28.470Z,18.28
2018-05-27T19:02:54.873Z,18.16
2018-05-27T19:05:21.198Z,18.14
2018-05-27T19:07:47.907Z,18.37
2018-05-27T19:10:14.184Z,18.56
2018-05-27T19:12:40.563Z,18.63
2018-05-27T19:15:07.165Z,18.66
2018-05-27T19:17:33.448Z,18.59
2018-05-27T19:20:00.611Z,18.59
2018-05-27T19:22:27.003Z,18.62
2018-05-27T19:24:54.071Z,18.68
2018-05-27T19:27:20.691Z,18.74
2018-05-27T19:29:48.716Z,18.70
2018-05-27T19:32:15.005Z,18.69
2018-05-27T19:34:41.391Z,18.39
2018-05-27T19:37:07.679Z,18.38
2018-05-27T19:39:34.002Z,18.33
2018-05-27T19:42:00.345Z,18.41
2018-05-27T19:44:26.644Z,18.42
2018-05-27T19:46:53.664Z,18.12
2018-05-27T19:49:20.261Z,17.94
2018-05-27T19:51:46.518Z,17.81
2018-05-27T19:54:12.841Z,17.83
2018-05-27T19:56:39.251Z,18.11
2018-05-27T19:59:05.548Z,18.12
2018-05-27T20:01:31.833Z,18.15
2018-05-27T20:03:58.159Z,18.02
2018-05-27T20:06:24.457Z,17.74
2018-05-27T20:08:50.730Z,17.51
2018-05-27T20:11:23.076Z,17.46
2018-05-27T20:13:55.327Z,17.53
2018-05-27T20:16:27.728Z,17.44
2018-05-27T20:19:00.068Z,17.52
2018-05-27T20:21:32.453Z,17.57
2018-05-27T20:24:04.844Z,17.60
2018-05-27T20:26:37.321Z,17.57
2018-05-27T20:29:09.668Z,17.47
2018-05-27T20:31:42.070Z,17.17
2018-05-27T20:34:14.513Z,17.13
2018-05-27T20:36:46.879Z,17.21
2018-05-27T20:39:19.564Z,17.20
2018-05-27T20:41:51.949Z,17.02
2018-05-27T20:44:24.263Z,16.91
2018-05-27T20:46:56.826Z,16.66
2018-05-27T20:49:29.182Z,16.74
2018-05-27T20:52:01.688Z,16.89
2018-05-27T20:54:33.896Z,16.92
2018-05-27T20:57:06.331Z,16.92
2018-05-27T20:59:38.554Z,16.89
2018-05-27T21:02:10.953Z,16.82
2018-05-27T21:04:43.387Z,16.77
2018-05-27T21:07:15.751Z,16.75
2018-05-27T21:09:48.050Z,16.71
2018-05-27T21:12:20.408Z,16.65
2018-05-27T21:14:52.886Z,16.48
2018-05-27T21:17:25.258Z,16.33
2018-05-27T21:19:57.790Z,16.08
2018-05-27T21:22:30.316Z,15.82
2018-05-27T21:25:02.900Z,16.03
2018-05-27T21:27:35.438Z,16.01
2018-05-27T21:30:07.821Z,15.89
2018-05-27T21:32:40.207Z,15.97
2018-05-27T21:35:12.609Z,15.97
2018-05-27T21:37:44.925Z,15.97
2018-05-27T21:40:17.391Z,15.94
2018-05-27T21:42:49.721Z,15.87
2018-05-27T21:45:22.148Z,15.78
2018-05-27T21:47:54.525Z,15.72
2018-05-27T21:50:26.970Z,15.75
2018-05-27T21:52:59.320Z,15.72
2018-05-27T21:55:31.771Z,15.75
2018-05-27T21:58:04.315Z,15.66
2018-05-27T22:00:36.599Z,14.92
2018-05-27T22:03:09.029Z,14.39
2018-05-27T22:05:41.261Z,14.26
2018-05-27T22:08:13.619Z,14.20
2018-05-27T22:10:45.854Z,14.17
2018-05-27T22:13:18.248Z,14.16
2018-05-27T22:15:50.695Z,14.13
2018-05-27T22:18:23.071Z,14.34
2018-05-27T22:20:55.573Z,14.33
2018-05-27T22:23:27.896Z,14.27
2018-05-27T22:26:00.390Z,14.42
2018-05-27T22:28:32.703Z,14.35
2018-05-27T22:31:05.142Z,14.30
2018-05-27T22:33:37.756Z,14.50
2018-05-27T22:36:10.115Z,14.51
2018-05-27T22:38:42.411Z,14.64
2018-05-27T22:41:14.601Z,14.69
2018-05-27T22:43:46.979Z,14.81
2018-05-27T22:46:19.241Z,14.56
2018-05-27T22:48:51.756Z,14.52
2018-05-27T22:51:23.967Z,14.47
2018-05-27T22:53:56.328Z,14.42
2018-05-27T22:56:28.606Z,14.33
2018-05-27T22:59:00.957Z,14.31
2018-05-27T23:01:33.316Z,14.11
2018-05-27T23:04:05.913Z,14.17
2018-05-27T23:06:38.209Z,14.24
2018-05-27T23:09:10.994Z,14.43
2018-05-27T23:11:43.261Z,14.56
2018-05-27T23:14:15.620Z,14.61
2018-05-27T23:16:47.899Z,14.52
2018-05-27T23:19:21.116Z,14.57
2018-05-27T23:21:53.533Z,14.53
2018-05-27T23:24:25.996Z,14.35
2018-05-27T23:26:58.519Z,14.48
2018-05-27T23:29:30.831Z,14.54
2018-05-27T23:32:03.260Z,14.56
2018-05-27T23:34:35.667Z,14.49
2018-05-27T23:37:08.134Z,14.36
2018-05-27T23:39:40.659Z,14.29
2018-05-27T23:42:12.997Z,14.27
2018-05-27T23:44:45.327Z,14.29
2018-05-27T23:47:17.576Z,14.29
2018-05-27T23:49:49.908Z,14.31
2018-05-27T23:52:22.372Z,14.30
2018-05-27T23:54:54.723Z,14.28
2018-05-27T23:57:27.016Z,14.29
2018-05-27T23:59:59.389Z,14.37
